createdAt,value
2023-03-26T00:04:20.290Z,6.5
2023-03-26T00:09:20.251Z,6.37
2023-03-26T00:14:20.297Z,6.25
2023-03-26T00:19:20.260Z,6.43
2023-03-26T00:24:20.225Z,6.37
2023-03-26T00:29:20.272Z,6.5
2023-03-26T00:34:20.247Z,6.56
2023-03-26T00:39:20.232Z,6.62
2023-03-26T00:44:20.221Z,6.62
2023-03-26T00:49:20.260Z,6.43
2023-03-26T00:54:20.243Z,6.25
2023-03-26T00:59:20.218Z,6.06
2023-03-26T01:04:20.347Z,5.87
2023-03-26T01:09:20.227Z,5.87
2023-03-26T01:14:20.226Z,5.81
2023-03-26T01:19:20.256Z,5.81
2023-03-26T01:24:20.194Z,5.87
2023-03-26T01:29:20.211Z,6.25
2023-03-26T01:34:20.188Z,6.06
2023-03-26T01:39:20.208Z,5.93
2023-03-26T01:44:20.224Z,6
2023-03-26T01:49:20.211Z,5.87
2023-03-26T01:54:20.159Z,5.81
2023-03-26T01:59:20.174Z,5.93
2023-03-26T02:04:20.162Z,6
2023-03-26T02:09:20.277Z,5.81
2023-03-26T02:14:20.178Z,5.81
2023-03-26T02:19:20.338Z,5.5
2023-03-26T02:24:20.143Z,5.5
2023-03-26T02:29:20.143Z,5.43
2023-03-26T02:34:20.144Z,5.31
2023-03-26T02:39:20.148Z,5.37
2023-03-26T02:44:20.146Z,5.56
2023-03-26T02:49:20.129Z,5.31
2023-03-26T02:54:20.120Z,5.25
2023-03-26T02:59:20.142Z,5.37
2023-03-26T03:04:20.119Z,5.25
2023-03-26T03:09:20.134Z,5.31
2023-03-26T03:14:20.117Z,5.12
2023-03-26T03:19:20.096Z,4.93
2023-03-26T03:24:20.097Z,5
2023-03-26T03:29:20.202Z,4.87
2023-03-26T03:34:20.124Z,4.68
2023-03-26T03:39:20.091Z,4.56
2023-03-26T03:44:20.125Z,4.68
2023-03-26T03:49:20.140Z,4.56
2023-03-26T03:54:20.118Z,4.12
2023-03-26T03:59:20.078Z,4.31
2023-03-26T04:04:20.110Z,4.31
2023-03-26T04:09:20.083Z,4
2023-03-26T04:14:20.075Z,3.87
2023-03-26T04:19:20.068Z,3.93
2023-03-26T04:24:20.369Z,4.06
2023-03-26T04:29:28.907Z,4.18
2023-03-26T04:34:20.065Z,4.37
2023-03-26T04:39:20.071Z,4.56
2023-03-26T04:44:20.049Z,4.87
2023-03-26T04:49:20.080Z,5.06
2023-03-26T04:54:20.091Z,5.12
2023-03-26T04:59:20.046Z,5.37
2023-03-26T05:04:20.071Z,5.31
2023-03-26T05:09:20.088Z,5.18
2023-03-26T05:14:20.021Z,5
2023-03-26T05:19:20.105Z,4.93
2023-03-26T05:24:20.045Z,5.06
2023-03-26T05:29:20.028Z,5.31
2023-03-26T05:34:20.020Z,5.5
2023-03-26T05:39:20.026Z,5.75
2023-03-26T05:44:20.033Z,5.93
2023-03-26T05:49:20.015Z,5.81
2023-03-26T05:54:20.009Z,5.87
2023-03-26T05:59:20.002Z,5.93
2023-03-26T06:04:20.055Z,6.06
2023-03-26T06:09:19.993Z,6.37
2023-03-26T06:14:19.983Z,6.5
2023-03-26T06:19:19.983Z,6.37
2023-03-26T06:24:19.975Z,6.56
2023-03-26T06:29:19.981Z,6.31
2023-03-26T06:34:20.003Z,6.25
2023-03-26T06:39:19.971Z,6.31
2023-03-26T06:44:19.959Z,6.37
2023-03-26T06:49:19.995Z,6.5
2023-03-26T06:54:19.984Z,6.43
2023-03-26T06:59:19.990Z,6.62
2023-03-26T07:04:19.981Z,6.81
2023-03-26T07:09:19.954Z,7.06
2023-03-26T07:14:19.962Z,6.93
2023-03-26T07:19:19.962Z,7.06
2023-03-26T07:24:19.955Z,7.25
2023-03-26T07:29:20.019Z,7.37
2023-03-26T07:34:19.949Z,7.43
2023-03-26T07:39:19.945Z,7.62
2023-03-26T07:44:19.914Z,7.56
2023-03-26T07:49:19.922Z,7.56
2023-03-26T07:54:19.912Z,7.87
2023-03-26T07:59:19.901Z,7.87
2023-03-26T08:04:23.096Z,8
2023-03-26T08:09:19.904Z,8.25
2023-03-26T08:14:19.888Z,8.06
2023-03-26T08:19:19.878Z,8
2023-03-26T08:24:19.915Z,7.93
2023-03-26T08:29:19.855Z,7.93
2023-03-26T08:34:19.869Z,8.37
2023-03-26T08:39:19.883Z,8.5
2023-03-26T08:44:19.847Z,8.31
2023-03-26T08:49:19.861Z,8.75
2023-03-26T08:54:19.846Z,8.5
2023-03-26T08:59:19.825Z,8.43
2023-03-26T09:04:19.902Z,8.43
2023-03-26T09:09:19.827Z,8.43
2023-03-26T09:14:19.812Z,8.87
2023-03-26T09:19:19.816Z,9
2023-03-26T09:24:19.814Z,9.37
2023-03-26T09:29:19.805Z,9.25
2023-03-26T09:34:19.824Z,9.75
2023-03-26T09:39:19.794Z,9.5
2023-03-26T09:44:19.789Z,8.93
2023-03-26T09:49:19.782Z,8.87
2023-03-26T09:54:19.788Z,8.68
2023-03-26T09:59:19.776Z,8.87
2023-03-26T10:04:19.785Z,8.68
2023-03-26T10:09:19.762Z,8.31
2023-03-26T10:14:19.764Z,8
2023-03-26T10:19:19.771Z,8.12
2023-03-26T10:24:19.846Z,7.81
2023-03-26T10:29:19.726Z,8
2023-03-26T10:34:28.317Z,9.12
2023-03-26T10:39:36.454Z,9.43
2023-03-26T10:44:21.963Z,8.75
2023-03-26T10:49:19.732Z,8.43
2023-03-26T10:54:19.735Z,8.18
2023-03-26T10:59:19.728Z,8.62
2023-03-26T11:04:19.701Z,8.37
2023-03-26T11:09:19.722Z,8.25
2023-03-26T11:14:28.191Z,8.12
2023-03-26T11:19:19.720Z,8.31
2023-03-26T11:24:19.714Z,8.06
2023-03-26T11:29:30.899Z,8.06
2023-03-26T11:34:19.690Z,8.12
2023-03-26T11:39:19.694Z,7.93
2023-03-26T11:44:19.670Z,8.12
2023-03-26T11:49:19.685Z,8.68
2023-03-26T11:54:19.698Z,8.68
2023-03-26T11:59:21.605Z,9.5
2023-03-26T12:04:19.652Z,9.37
2023-03-26T12:09:19.632Z,9.12
2023-03-26T12:14:19.624Z,8.81
2023-03-26T12:19:19.617Z,8.31
2023-03-26T12:24:19.648Z,7.87
2023-03-26T12:29:19.631Z,8.31
2023-03-26T12:34:19.610Z,8.43
2023-03-26T12:40:08.264Z,8.93
2023-03-26T12:44:52.199Z,9.25
2023-03-26T12:49:19.643Z,9.37
2023-03-26T12:54:19.622Z,9.62
2023-03-26T12:59:19.584Z,9.25
2023-03-26T13:04:19.596Z,9.68
2023-03-26T13:09:19.603Z,9.56
2023-03-26T13:14:19.565Z,9.56
2023-03-26T13:19:19.588Z,9.12
2023-03-26T13:24:19.567Z,9.56
2023-03-26T13:29:19.551Z,9.43
2023-03-26T13:34:19.583Z,9.37
2023-03-26T13:39:19.566Z,9.43
2023-03-26T13:44:19.579Z,9.62
2023-03-26T13:49:19.546Z,9.18
2023-03-26T13:54:19.537Z,9.56
2023-03-26T13:59:19.624Z,9.56
2023-03-26T14:04:19.539Z,9.56
2023-03-26T14:09:19.545Z,9.37
2023-03-26T14:14:19.528Z,9.62
2023-03-26T14:19:19.514Z,9.81
2023-03-26T14:24:19.504Z,9.12
2023-03-26T14:29:22.074Z,9.06
2023-03-26T14:34:19.489Z,8.93
2023-03-26T14:39:19.486Z,8.93
2023-03-26T14:44:19.463Z,8.18
2023-03-26T14:49:19.525Z,8.06
2023-03-26T14:54:19.459Z,7.37
2023-03-26T14:59:19.464Z,6.75
2023-03-26T15:04:19.506Z,6.31
2023-03-26T15:09:19.448Z,6.75
2023-03-26T15:14:19.455Z,6.75
2023-03-26T15:19:19.467Z,7.06
2023-03-26T15:24:19.436Z,7
2023-03-26T15:29:19.440Z,7.12
2023-03-26T15:34:19.471Z,6.75
2023-03-26T15:39:19.420Z,6.68
2023-03-26T15:44:23.252Z,6.75
2023-03-26T15:49:19.429Z,6.68
2023-03-26T15:54:19.384Z,6.68
2023-03-26T15:59:19.431Z,6.62
2023-03-26T16:04:19.423Z,6.75
2023-03-26T16:09:19.398Z,6.62
2023-03-26T16:14:20.457Z,6.56
2023-03-26T16:19:19.420Z,6.43
2023-03-26T16:24:19.396Z,6.37
2023-03-26T16:29:19.404Z,6.37
2023-03-26T16:34:19.384Z,6.37
2023-03-26T16:39:19.382Z,6.5
2023-03-26T16:44:19.392Z,6.5
2023-03-26T16:49:19.382Z,6.87
2023-03-26T16:54:19.380Z,6.75
2023-03-26T16:59:19.394Z,6.81
2023-03-26T17:04:19.368Z,6.75
2023-03-26T17:09:19.342Z,6.75
2023-03-26T17:14:19.343Z,7
2023-03-26T17:19:19.368Z,7
2023-03-26T17:24:19.355Z,6.68
2023-03-26T17:29:19.347Z,6.68
2023-03-26T17:34:19.336Z,6.56
2023-03-26T17:39:19.319Z,6.43
2023-03-26T17:44:19.344Z,6.43
2023-03-26T17:49:19.333Z,6.31
2023-03-26T17:54:19.308Z,6.25
2023-03-26T17:59:19.315Z,6.18
2023-03-26T18:04:19.313Z,6.18
2023-03-26T18:09:19.297Z,6.06
2023-03-26T18:14:19.296Z,6.06
2023-03-26T18:19:19.322Z,6.12
2023-03-26T18:24:19.308Z,6.37
2023-03-26T18:29:19.286Z,6.43
2023-03-26T18:34:19.258Z,6.62
2023-03-26T18:39:19.287Z,6.56
2023-03-26T18:44:19.287Z,6.43
2023-03-26T18:49:19.271Z,6.56
2023-03-26T18:54:19.279Z,6.43
2023-03-26T18:59:19.277Z,6.37
2023-03-26T19:04:19.248Z,6.18
2023-03-26T19:09:30.711Z,6.06
2023-03-26T19:14:19.269Z,5.93
2023-03-26T19:19:19.250Z,5.75
2023-03-26T19:24:19.240Z,5.68
2023-03-26T19:29:19.238Z,5.5
2023-03-26T19:34:19.229Z,5.43
2023-03-26T19:39:27.366Z,5.43
2023-03-26T19:44:19.248Z,5.31
2023-03-26T19:49:19.256Z,5.31
2023-03-26T19:54:19.218Z,5.31
2023-03-26T19:59:20.949Z,5.25
2023-03-26T20:04:19.365Z,5.18
2023-03-26T20:09:19.231Z,5.18
2023-03-26T20:14:19.203Z,5.12
2023-03-26T20:19:19.225Z,5.06
2023-03-26T20:24:19.220Z,5
2023-03-26T20:29:19.176Z,5.06
2023-03-26T20:34:19.195Z,5.12
2023-03-26T20:39:19.176Z,5.12
2023-03-26T20:44:19.200Z,5.06
2023-03-26T20:49:19.182Z,5
2023-03-26T20:54:19.173Z,5.06
2023-03-26T20:59:19.215Z,4.93
2023-03-26T21:04:19.229Z,5
2023-03-26T21:09:19.146Z,4.93
2023-03-26T21:14:19.180Z,5
2023-03-26T21:19:19.158Z,5
2023-03-26T21:24:19.155Z,5.12
2023-03-26T21:29:19.168Z,5.12
2023-03-26T21:34:19.155Z,4.75
2023-03-26T21:39:19.118Z,4.81
2023-03-26T21:44:19.124Z,4.93
2023-03-26T21:49:19.142Z,4.81
2023-03-26T21:54:19.113Z,4.87
2023-03-26T21:59:19.112Z,4.93
2023-03-26T22:04:19.113Z,4.93
2023-03-26T22:09:23.517Z,4.87
2023-03-26T22:14:19.111Z,4.81
2023-03-26T22:19:19.117Z,4.87
2023-03-26T22:24:19.082Z,4.75
2023-03-26T22:29:19.116Z,4.87
2023-03-26T22:34:19.122Z,4.93
2023-03-26T22:39:19.078Z,4.93
2023-03-26T22:44:20.433Z,5
2023-03-26T22:49:19.085Z,5
2023-03-26T22:54:19.094Z,5
2023-03-26T22:59:19.072Z,5
2023-03-26T23:04:30.985Z,5
2023-03-26T23:09:19.580Z,5.06
2023-03-26T23:14:19.068Z,5.06
2023-03-26T23:19:19.056Z,5
2023-03-26T23:24:19.054Z,5.06
2023-03-26T23:29:19.075Z,5.06
2023-03-26T23:34:19.036Z,5.06
2023-03-26T23:39:19.054Z,5
2023-03-26T23:44:19.047Z,5
2023-03-26T23:49:19.063Z,4.87
2023-03-26T23:54:19.127Z,4.93
2023-03-26T23:59:19.038Z,4.87
